This is the latest recevied weather packets stored in our database for station/object DH5DY-13. If no packets are shown the sender has not sent any weather packets the latest 10 day(s).
| Time | Temp. | Humidity | Pressure | Rain* | Wind** | Luminosity | Snow |
|---|---|---|---|---|---|---|---|
| 1778015629 | 12.22° C | 95% | 1004.4 hPa | 0.76 mm | - | 0 W/m² | - |
| 1778014422 | 12.22° C | 94% | 1004.5 hPa | 1.52 mm | - | 0 W/m² | - |
| 1778013214 | 12.22° C | 94% | 1004.7 hPa | 1.78 mm | - | 0 W/m² | - |
| 1778012007 | 12.22° C | 94% | 1004.7 hPa | 2.54 mm | - | 0 W/m² | - |
| 1778010799 | 12.78° C | 94% | 1004.6 hPa | 2.29 mm | - | 0 W/m² | - |
| 1778009591 | 12.78° C | 94% | 1004.5 hPa | 2.29 mm | - | 0 W/m² | - |
| 1778008384 | 13.33° C | 94% | 1004.6 hPa | 1.52 mm | - | 0 W/m² | - |
| 1778007177 | 13.33° C | 94% | 1004.5 hPa | 1.02 mm | - | 0 W/m² | - |
| 1778005969 | 13.33° C | 93% | 1004.7 hPa | 1.02 mm | - | 0 W/m² | - |
| 1778004760 | 13.33° C | 93% | 1004.6 hPa | 1.27 mm | - | 11 W/m² | - |
| 1778003553 | 13.33° C | 93% | 1004.7 hPa | 2.29 mm | - | 14 W/m² | - |
| 1778001134 | 13.89° C | 93% | 1005 hPa | 4.06 mm | - | 19 W/m² | - |
| 1777999925 | 13.89° C | 93% | 1005 hPa | 4.32 mm | - | 26 W/m² | - |
| 1777927517 | 12.22° C | 95% | 1011.3 hPa | 0 mm | - | 0 W/m² | - |
| 1777925102 | 12.22° C | 94% | 1011.3 hPa | 0 mm | - | 0 W/m² | - |
| 1777923892 | 12.22° C | 94% | 1011.2 hPa | 0 mm | - | 0 W/m² | - |
| 1777922683 | 12.22° C | 94% | 1011.1 hPa | 0 mm | - | 0 W/m² | - |
| 1777921473 | 12.22° C | 94% | 1011.3 hPa | 0 mm | - | 0 W/m² | - |
| 1777920265 | 12.78° C | 93% | 1011.4 hPa | 0 mm | - | 0 W/m² | - |
| 1777919055 | 12.78° C | 93% | 1011.2 hPa | 0 mm | - | 9 W/m² | - |
| 1777917847 | 13.33° C | 93% | 1011.1 hPa | 0 mm | - | 16 W/m² | - |
| 1777916639 | 13.33° C | 92% | 1011.2 hPa | 0 mm | - | 19 W/m² | - |
| 1777754994 | 16.67° C | 61% | 1013.6 hPa | 0 mm | - | 0 W/m² | - |
| 1777753785 | 17.22° C | 59% | 1013.6 hPa | 0 mm | - | 0 W/m² | - |
| 1777752577 | 17.22° C | 57% | 1013.7 hPa | 0 mm | - | 0 W/m² | - |
* Rain latest hour (hover to see other rain measurements)
** Current wind speed in m/s (hover to see current wind gust speed)